x

Newport, Or (nwpo3) Weather Station

4:00am - Sat 18th Apr 2015 All times are PDT. -7 hours from GMT.

  • Wind
    2mph
  • Air Temp 46°f
  • Sea Pressure 1025.6mb
  • Newport, Or
  • Newport, Or

More Historic Weather Station data

Upgrade to MSW Pro to gain access to the past 30 days of data for over 8000 Wavebouys and Weather Stations around the globe.

Join Pro

Comparision Forecast

View Surf forecast
   
Sat 04/18 4:00am 2
mph
1025.6mb 46f
3:00am 3 5 mph 1025.5mb 49f
2:00am 15 18 mph 1025.6mb 50f
1:00am 20 22 mph 1025.8mb 51f
12:00am 18 22 mph 1025.7mb 51f
Fri 04/17 11:00pm 22 26 mph 1025.3mb 51f
10:00pm 17 20 mph 1025mb 51f
9:00pm 24 29 mph 1024.7mb 52f
8:00pm 30 34 mph 1023.9mb 52f
7:00pm 32 38 mph 1023.6mb 53f
6:00pm 31 36 mph 1023.7mb 53f
5:00pm 29 33 mph 1023.9mb 54f
4:00pm 26 29 mph 1024.3mb 53f
3:00pm 25 29 mph 1024.5mb 53f
2:00pm 24 28 mph 1024.8mb 53f
1:00pm 26 31 mph 1024.6mb 53f
12:00pm 16 17 mph 1024.7mb 53f
11:00am 15 16 mph 1024.2mb 53f
10:00am 14 16 mph 1023.7mb 53f
9:00am 18 22 mph 1023.7mb 53f
8:00am 17 20 mph 1023.6mb 53f
7:00am 21 22 mph 1023.4mb 53f
6:00am 21 24 mph 1023mb 52f
5:00am 6 7 mph 1022.5mb 49f
4:00am 3 5 mph 1022.5mb 48f
3:00am 3 5 mph 1022.1mb 47f
2:00am  -  2 mph 1022.4mb 47f
1:00am 5
mph
1022.2mb 50f
12:00am 7 8 mph 1022.1mb 51f
Thu 04/16 11:00pm 15 17 mph 1021.7mb 53f
10:00pm 8 9 mph 1021.3mb 53f
9:00pm 13 14 mph 1021mb 54f
8:00pm 22 25 mph 1020.4mb 54f
7:00pm 26 31 mph 1020.4mb 54f
6:00pm 26 29 mph 1020.8mb 54f
5:00pm 24 28 mph 1021.4mb 55f
4:00pm 22 25 mph 1022.1mb 55f
3:00pm 22 23 mph 1023mb 54f
2:00pm 17 21 mph 1023.8mb 53f
1:00pm 11 13 mph 1024.5mb 53f
12:00pm 13 14 mph 1025.3mb 51f
11:00am 8 9 mph 1025.8mb 51f
10:00am 7 9 mph 1026.2mb 51f
9:00am 8 10 mph 1026.6mb 48f
8:00am 8 9 mph 1027mb 43f
7:00am 8 10 mph 1027.1mb 41f
6:00am 8
mph
1027.2mb 41f
5:00am 6 7 mph 1027.5mb 41f
4:00am 7
mph
1027.8mb 43f
3:00am 6
mph
1028mb 43f
2:00am 6 7 mph 1028.8mb 44f
1:00am 5
mph
1029.3mb 45f
12:00am 5
mph
1029.6mb 47f
Wed 04/15 11:00pm 6 7 mph 1030.2mb 49f
10:00pm 6 7 mph 1030.4mb 49f
9:00pm 10 14 mph 1030.4mb 50f
8:00pm 26 30 mph 1029.8mb 51f
7:00pm 28 31 mph 1030mb 51f
6:00pm 26 32 mph 1030.6mb 51f
5:00pm 25 28 mph 1031.2mb 51f
4:00pm 22 25 mph 1032mb 51f
3:00pm 20 22 mph 1032.7mb 51f
2:00pm 15 17 mph 1033.2mb 51f
1:00pm 10 11 mph 1033.9mb 50f
12:00pm 9 10 mph 1034.5mb 51f
11:00am 6 9 mph 1034.6mb 51f
10:00am 7 9 mph 1034.8mb 48f
9:00am 8 9 mph 1034.7mb 44f
8:00am 6 7 mph 1034.6mb 40f
7:00am 11 14 mph 1034.1mb 38f
6:00am 8 10 mph 1033.7mb 39f
5:00am 6 7 mph 1033.4mb 39f
4:00am 7 10 mph 1033.1mb 40f
3:00am 6 8 mph 1033.1mb 41f
2:00am 6 8 mph 1033.3mb 41f
1:00am 5
mph
1033.2mb 44f
12:00am 13 14 mph 1033mb 46f
Tue 04/14 11:00pm 5
mph
1032.8mb 47f
10:00pm 10 13 mph 1032.6mb 50f
9:00pm 13 14 mph 1032.1mb 50f
8:00pm 13 14 mph 1031.6mb 50f
7:00pm 16 18 mph 1031.5mb 49f
6:00pm 16 21 mph 1031.5mb 51f
5:00pm 9 13 mph 1031.5mb 51f
4:00pm 14 17 mph 1031.5mb 51f
3:00pm 15 17 mph 1031.3mb 52f
2:00pm 15 17 mph 1030.9mb 51f
1:00pm 14 17 mph 1030.6mb 49f